map of THU home
THU - Airport
Location
City:  Pituffik, Greenland
Near (Alt.):Dundas
Name:Thule AB
ICAO:BGTL
IATA:THU

Details
Type:Airport (Aerodrome, Airfield)
Use:Military
Latitude:7631'52"N (76.531203)
Longitude:6842'11"W (-68.703160)
Elevation:251 ft (77 m)
Variation:42.98W (WMM2015v2 magnetic declination)
1.01 annual change
Runways:1
Longest:9997 × 140 ft (3047 × 42.5 m), paved

Time
Time Zone:UTC-4 (DST-3)
Local Time:

Weather
METAR:BGTL 041356Z AUTO 10006KT 9999 CLR M28/M32 A2990 RMK AO2 SLP119 T12771316 TSNO CHINO RWY26 $
TAF:BGTL 041000Z 0410/0516 11009KT 9999 SKC QNH2990INS TXM26/0411Z TNM30/0503Z LAST NO
AMDS AFT 0410 NEXT 0414

Related Locations
Nearby:
Farthest:YWKS: 11748 mi / 18906 km
Wilkins Runway (Casey), Upper Peterson Glacier, AQ

Find:

   beyond  
but within

Other Information
Maps:
NOTAMs:
Links:
Sources:

  
  • flag of Greenland
  

Airport Diagram

Airport diagram for THU

Larger airport diagram (OBSOLETE) from NGA

Sectional Chart

Flight Planning
at skyvector.com

Satellite Image

Google Maps Satellite view

 

Copyright © 2004-2019 Karl L. Swartz. All rights reserved.
The Great Circle Mapper name and logo are trademarks of the Great Circle Mapper.
All other trademarks mentioned herein belong to their respective owners.
Please see credits for attibutions and further copyright information.

  Follow gcmap on Facebook Follow gcmap on Twitter GCmap on LinkedIn

hCard Microformat

Geo Microformat